CWUW

Dewar Lakes Airport

Canada
METAR CWUW 182000Z AUTO 32009KT ////SM NCD M28/M31 A2953
Observed Flight Rules
Jan-18 @ 20:00 UTC (26 minutes ago)
Wind Clouds
320° at 9 knots
  • Clear skies
Temperatures Readings
Current -28°C / -18°F
Dewpoint -31°C / -24°F
Humidity 75%
Altimeter 29.53" Hg
Pressure 1000.02 hPa
Elevation 527
METAR CWUW 182000Z AUTO 32009KT ////SM NCD M28/M31 A2953
Observed Flight Rules
Jan-18 @ 20:00 UTC
(26 minutes ago)
Wind
320° at 9 knots
Clouds
  • Clear skies
Temperature Dewpoint
-28°C / -18°F -31°C / -24°F
Humidity Altimeter Pressure
75% 29.53" Hg 1000.02 hPa